Time;durP1;ratioP1;P1;durP2;ratioP2;P2;SDS_P1;SDS_P2;PMS_P1;PMS_P2;Temp;Humidity;BMP_temperature;BMP_pressure;BME280_temperature;BME280_humidity;BME280_pressure;Samples;Min_cycle;Max_cycle;Signal;HPM_P1;HPM_P2
2021/09/16 00:01:00;;;;;;;6.65;4.18;;;18.60;99.90;;;;;;5040871;28;20090;-80
2021/09/16 00:03:26;;;;;;;5.03;3.53;;;18.60;99.90;;;;;;5041103;28;20021;-78
2021/09/16 00:05:51;;;;;;;6.55;4.38;;;18.60;99.90;;;;;;5038544;28;20021;-79
2021/09/16 00:08:17;;;;;;;7.22;4.00;;;;;;;;;;5044084;28;20028;-80
2021/09/16 00:10:44;;;;;;;6.63;4.43;;;18.60;99.90;;;;;;5038718;28;20205;-80
2021/09/16 00:13:10;;;;;;;7.43;4.07;;;18.90;99.90;;;;;;5032410;28;20036;-79
2021/09/16 00:15:36;;;;;;;6.20;3.92;;;21.30;99.90;;;;;;5042668;28;20025;-81
2021/09/16 00:18:02;;;;;;;5.90;4.10;;;;;;;;;;5039318;28;20137;-80
2021/09/16 00:20:27;;;;;;;6.28;4.00;;;18.50;99.90;;;;;;5036065;28;20029;-79
2021/09/16 00:22:53;;;;;;;7.00;4.85;;;18.90;99.90;;;;;;5046523;28;20036;-81
2021/09/16 00:25:19;;;;;;;7.70;4.95;;;18.60;99.90;;;;;;5040323;28;20537;-82
2021/09/16 00:27:44;;;;;;;7.60;4.90;;;18.50;99.90;;;;;;5039449;28;20022;-80
2021/09/16 00:30:11;;;;;;;7.15;5.25;;;20.60;99.90;;;;;;5049278;28;20128;-80
2021/09/16 00:32:37;;;;;;;8.07;5.25;;;18.50;99.90;;;;;;5035988;28;20029;-84
2021/09/16 00:35:04;;;;;;;6.72;5.07;;;18.50;99.90;;;;;;5048163;28;20108;-81
2021/09/16 00:37:30;;;;;;;9.10;6.35;;;18.50;99.90;;;;;;5040577;28;20089;-81
2021/09/16 00:39:56;;;;;;;8.70;6.13;;;;;;;;;;5035506;28;20111;-79
2021/09/16 00:42:22;;;;;;;11.18;6.32;;;18.40;99.90;;;;;;5035491;28;20037;-80
2021/09/16 00:44:48;;;;;;;9.52;6.13;;;19.10;99.90;;;;;;5032643;28;20025;-84
2021/09/16 00:47:16;;;;;;;9.25;6.13;;;18.40;99.90;;;;;;5028513;28;20084;-80
2021/09/16 00:49:45;;;;;;;8.85;5.97;;;20.20;99.90;;;;;;5047919;28;20032;-81
2021/09/16 00:52:12;;;;;;;9.30;6.47;;;18.40;99.90;;;;;;5040540;28;20029;-78
2021/09/16 00:54:43;;;;;;;12.25;6.55;;;18.40;99.90;;;;;;5034463;28;20116;-77
2021/09/16 00:57:11;;;;;;;10.90;6.20;;;18.40;99.90;;;;;;5035112;28;20064;-81
2021/09/16 00:59:38;;;;;;;10.57;6.70;;;18.40;99.90;;;;;;5024517;28;20032;-80
2021/09/16 01:02:04;;;;;;;11.20;7.22;;;18.30;99.90;;;;;;5025550;28;20103;-80
2021/09/16 01:04:31;;;;;;;12.23;7.95;;;20.20;99.90;;;;;;5031024;28;20263;-81
2021/09/16 01:06:58;;;;;;;13.70;8.65;;;19.00;99.90;;;;;;5051784;28;20394;-81
2021/09/16 01:09:24;;;;;;;12.32;8.23;;;18.40;99.90;;;;;;5033863;28;20035;-78
2021/09/16 01:11:51;;;;;;;11.07;7.90;;;18.40;99.90;;;;;;5032208;28;20021;-81
2021/09/16 01:14:25;;;;;;;13.40;8.75;;;18.30;99.90;;;;;;5033610;28;20053;-81
2021/09/16 01:16:51;;;;;;;13.65;7.53;;;18.30;99.90;;;;;;5031641;28;20100;-80
2021/09/16 01:19:18;;;;;;;11.75;8.23;;;;;;;;;;5031112;28;20037;-81
2021/09/16 01:21:44;;;;;;;10.65;7.70;;;;;;;;;;5027805;28;20065;-79
2021/09/16 01:24:10;;;;;;;10.85;6.78;;;;;;;;;;5026875;28;20034;-81
2021/09/16 01:26:36;;;;;;;9.98;6.60;;;;;;;;;;5034438;28;20021;-82
2021/09/16 01:29:02;;;;;;;10.93;6.93;;;;;;;;;;5026755;28;20068;-79
2021/09/16 01:31:42;;;;;;;13.57;7.38;;;18.30;99.90;;;;;;5030576;28;20037;-82
2021/09/16 01:34:08;;;;;;;;;;;18.30;99.90;;;;;;5031520;28;20034;-81
2021/09/16 01:36:35;;;;;;;7.90;5.50;;;19.80;99.90;;;;;;5031761;28;20352;-81
2021/09/16 01:39:03;;;;;;;8.02;5.75;;;18.30;99.90;;;;;;5046884;28;20117;-80
2021/09/16 01:41:30;;;;;;;10.95;6.80;;;18.30;99.90;;;;;;5036831;28;20052;-81
2021/09/16 01:43:55;;;;;;;9.15;6.32;;;18.20;99.90;;;;;;5038389;28;20466;-80
2021/09/16 01:46:21;;;;;;;8.77;5.47;;;18.90;99.90;;;;;;5033597;28;20026;-80
2021/09/16 01:48:47;;;;;;;7.85;5.35;;;18.20;99.90;;;;;;5037923;28;20039;-80
2021/09/16 01:51:13;;;;;;;10.30;6.07;;;18.20;99.90;;;;;;5036013;28;20512;-80
2021/09/16 01:53:38;;;;;;;7.95;5.15;;;18.30;99.90;;;;;;5031479;28;20037;-81
2021/09/16 01:56:04;;;;;;;8.20;5.63;;;18.30;99.90;;;;;;5032678;28;20041;-80
2021/09/16 01:58:30;;;;;;;8.25;5.60;;;18.20;99.90;;;;;;5030110;28;20033;-82
2021/09/16 02:00:56;;;;;;;8.48;5.88;;;18.20;99.90;;;;;;5031153;28;20017;-79
2021/09/16 02:03:22;;;;;;;9.52;6.22;;;18.60;99.90;;;;;;5030973;28;20017;-80
2021/09/16 02:05:48;;;;;;;10.73;6.45;;;18.20;99.90;;;;;;5028796;28;20104;-82
2021/09/16 02:08:13;;;;;;;8.88;5.70;;;18.30;99.90;;;;;;5034070;28;20043;-83
2021/09/16 02:10:39;;;;;;;8.23;5.93;;;18.20;99.90;;;;;;5032163;28;20425;-80
2021/09/16 02:13:05;;;;;;;8.32;5.68;;;18.80;99.90;;;;;;5031870;28;20545;-82
2021/09/16 02:15:30;;;;;;;10.10;5.78;;;18.00;99.90;;;;;;5027840;28;20874;-81
2021/09/16 02:17:56;;;;;;;7.65;5.40;;;18.20;99.90;;;;;;5030669;28;20859;-81
2021/09/16 02:20:21;;;;;;;8.45;5.50;;;18.10;99.90;;;;;;5035010;28;20029;-83
2021/09/16 02:22:47;;;;;;;10.57;5.35;;;18.10;99.90;;;;;;5042739;28;20028;-82
2021/09/16 02:25:13;;;;;;;8.32;5.97;;;18.00;99.90;;;;;;5043440;28;20030;-82
2021/09/16 02:27:38;;;;;;;9.00;5.25;;;18.10;99.90;;;;;;5041846;28;20048;-83
2021/09/16 02:30:05;;;;;;;7.50;5.50;;;20.10;99.90;;;;;;5044509;28;20055;-83
2021/09/16 02:32:31;;;;;;;10.13;5.85;;;18.00;99.90;;;;;;5041393;28;20397;-81
2021/09/16 02:34:56;;;;;;;10.77;5.85;;;18.00;99.90;;;;;;5032148;28;20057;-82
2021/09/16 02:37:23;;;;;;;9.80;5.90;;;19.10;99.90;;;;;;5031321;28;20029;-80
2021/09/16 02:39:49;;;;;;;9.07;5.85;;;;;;;;;;5031465;28;20033;-83
2021/09/16 02:42:15;;;;;;;8.73;6.05;;;;;;;;;;5024355;28;20033;-80
2021/09/16 02:44:40;;;;;;;10.15;5.75;;;18.00;99.90;;;;;;5023991;28;20025;-80
2021/09/16 02:47:06;;;;;;;9.18;5.80;;;18.90;99.90;;;;;;5029806;28;20113;-80
2021/09/16 02:49:32;;;;;;;10.15;5.82;;;;;;;;;;5031962;28;20079;-81
2021/09/16 02:51:57;;;;;;;7.63;5.82;;;18.00;99.90;;;;;;5034241;28;20478;-80
2021/09/16 02:54:23;;;;;;;14.40;6.22;;;18.50;99.90;;;;;;5029549;28;20029;-78
2021/09/16 02:56:49;;;;;;;10.40;6.20;;;18.00;99.90;;;;;;5034657;28;20033;-78
2021/09/16 02:59:15;;;;;;;8.75;6.07;;;19.80;99.90;;;;;;5031586;28;20476;-81
2021/09/16 03:01:41;;;;;;;9.05;6.20;;;19.40;99.90;;;;;;5022404;28;20041;-81
2021/09/16 03:04:06;;;;;;;8.73;6.32;;;;;;;;;;5034647;28;20018;-80
2021/09/16 03:06:32;;;;;;;12.95;6.13;;;17.90;99.90;;;;;;5033747;28;20018;-80
2021/09/16 03:08:58;;;;;;;10.18;5.68;;;18.50;99.90;;;;;;5045299;28;20452;-80
2021/09/16 03:11:24;;;;;;;8.43;5.90;;;18.00;99.90;;;;;;5047545;28;20048;-80
2021/09/16 03:13:49;;;;;;;10.40;5.80;;;18.00;99.90;;;;;;5041530;28;20064;-82
2021/09/16 03:16:15;;;;;;;8.40;5.82;;;17.80;99.90;;;;;;5049847;28;20026;-80
2021/09/16 03:18:40;;;;;;;10.50;6.45;;;17.90;99.90;;;;;;5042549;28;20034;-82
2021/09/16 03:21:06;;;;;;;10.00;6.85;;;17.90;99.90;;;;;;5034477;28;20033;-82
2021/09/16 03:23:32;;;;;;;11.45;7.07;;;17.90;99.90;;;;;;5043133;28;20060;-83
2021/09/16 03:25:58;;;;;;;10.63;6.45;;;17.90;99.90;;;;;;5054108;28;20067;-80
2021/09/16 03:28:23;;;;;;;10.20;6.50;;;18.20;99.90;;;;;;5037824;28;20043;-82
2021/09/16 03:30:49;;;;;;;11.23;6.93;;;17.90;99.90;;;;;;5031733;28;20037;-81
2021/09/16 03:33:14;;;;;;;10.88;6.82;;;17.90;99.90;;;;;;5036958;28;20417;-82
2021/09/16 03:35:40;;;;;;;10.07;7.05;;;18.20;99.90;;;;;;5042879;28;20029;-82
2021/09/16 03:38:05;;;;;;;10.40;6.78;;;18.60;99.90;;;;;;5047542;28;20145;-81
2021/09/16 03:40:31;;;;;;;10.57;6.63;;;17.80;99.90;;;;;;5039906;28;20029;-82
2021/09/16 03:42:57;;;;;;;11.07;7.13;;;17.90;99.90;;;;;;5040090;28;20061;-82
2021/09/16 03:45:23;;;;;;;12.13;6.93;;;17.90;99.90;;;;;;5036956;28;20032;-81
2021/09/16 03:47:48;;;;;;;10.52;7.20;;;17.90;99.90;;;;;;5038778;28;20108;-80
2021/09/16 03:50:14;;;;;;;12.68;7.68;;;17.90;99.90;;;;;;5041535;28;20438;-81
2021/09/16 03:52:40;;;;;;;13.20;8.48;;;;;;;;;;5032739;28;20033;-81
2021/09/16 03:55:06;;;;;;;14.00;7.93;;;17.90;99.90;;;;;;5041735;28;20029;-80
2021/09/16 03:57:33;;;;;;;15.32;7.63;;;;;;;;;;5037912;28;20018;-81
2021/09/16 03:59:58;;;;;;;15.32;7.97;;;17.80;99.90;;;;;;5040312;28;20070;-82
2021/09/16 04:02:25;;;;;;;13.73;7.93;;;;;;;;;;5051846;28;20089;-80
2021/09/16 04:04:51;;;;;;;18.10;8.02;;;17.90;99.90;;;;;;5038836;28;20486;-82
2021/09/16 04:07:16;;;;;;;15.32;8.20;;;17.90;99.90;;;;;;5050064;28;20023;-82
2021/09/16 04:09:42;;;;;;;17.02;8.02;;;21.00;99.90;;;;;;5036548;28;20475;-80
2021/09/16 04:12:08;;;;;;;14.70;8.48;;;20.20;99.90;;;;;;5040272;28;20383;-79
2021/09/16 04:14:33;;;;;;;14.32;7.93;;;17.80;99.90;;;;;;5037561;28;20047;-82
2021/09/16 04:16:59;;;;;;;26.17;16.58;;;17.80;99.90;;;;;;5039814;28;20026;-80
2021/09/16 04:19:25;;;;;;;19.50;9.27;;;17.80;99.90;;;;;;5031456;28;20025;-82
2021/09/16 04:21:50;;;;;;;16.95;8.82;;;17.80;99.90;;;;;;5036624;28;20021;-79
2021/09/16 04:24:16;;;;;;;16.08;8.65;;;18.60;99.90;;;;;;5031746;28;20112;-81
2021/09/16 04:26:44;;;;;;;19.88;9.13;;;17.80;99.90;;;;;;5036699;28;20063;-81
2021/09/16 04:29:10;;;;;;;18.30;8.57;;;19.90;99.90;;;;;;5042156;28;20021;-81
2021/09/16 04:31:35;;;;;;;28.02;9.00;;;17.80;99.90;;;;;;5035525;28;20031;-81
2021/09/16 04:34:01;;;;;;;15.48;9.15;;;18.00;99.90;;;;;;5032915;28;20371;-82
2021/09/16 04:36:27;;;;;;;17.73;9.10;;;17.80;99.90;;;;;;5035805;28;20092;-80
2021/09/16 04:38:52;;;;;;;18.25;9.43;;;18.50;99.90;;;;;;5039496;28;20103;-80
2021/09/16 04:41:18;;;;;;;15.65;9.02;;;18.00;99.90;;;;;;5031950;28;20041;-82
2021/09/16 04:43:43;;;;;;;19.70;9.73;;;17.80;99.90;;;;;;5033830;28;20060;-82
2021/09/16 04:46:09;;;;;;;17.48;9.52;;;;;;;;;;5027756;28;20082;-81
2021/09/16 04:48:35;;;;;;;16.52;8.98;;;;;;;;;;5035945;28;20083;-80
2021/09/16 04:51:01;;;;;;;16.77;9.93;;;17.70;99.90;;;;;;5026734;28;20500;-81
2021/09/16 04:53:26;;;;;;;15.65;9.25;;;17.70;99.90;;;;;;5029161;28;20163;-81
2021/09/16 04:55:52;;;;;;;18.42;10.38;;;17.70;99.90;;;;;;5047235;28;20412;-80
2021/09/16 04:58:18;;;;;;;17.05;9.45;;;18.80;99.90;;;;;;5030675;28;20029;-80
2021/09/16 05:00:43;;;;;;;17.73;10.18;;;17.70;99.90;;;;;;5030018;28;20092;-82
2021/09/16 05:03:09;;;;;;;16.95;10.43;;;17.70;99.90;;;;;;5025777;28;20044;-82
2021/09/16 05:05:35;;;;;;;18.98;10.45;;;17.70;99.90;;;;;;5043314;28;20437;-81
2021/09/16 05:08:00;;;;;;;19.10;10.43;;;20.00;99.90;;;;;;5031197;28;20036;-82
2021/09/16 05:10:26;;;;;;;17.30;11.20;;;17.60;99.90;;;;;;5030553;28;20029;-81
2021/09/16 05:12:52;;;;;;;16.83;10.15;;;17.60;99.90;;;;;;5049450;28;20124;-81
2021/09/16 05:15:17;;;;;;;19.27;11.75;;;17.70;99.90;;;;;;5029413;28;20017;-82
2021/09/16 05:17:43;;;;;;;16.58;11.65;;;17.70;99.90;;;;;;5023546;28;20028;-84
2021/09/16 05:20:09;;;;;;;17.48;11.65;;;17.60;99.90;;;;;;5039452;28;20079;-82
2021/09/16 05:22:35;;;;;;;18.30;11.32;;;17.60;99.90;;;;;;5032468;28;20479;-82
2021/09/16 05:25:01;;;;;;;15.73;10.38;;;17.60;99.90;;;;;;5036397;28;20028;-80
2021/09/16 05:27:26;;;;;;;18.52;9.95;;;17.60;99.90;;;;;;5054789;28;20030;-85
2021/09/16 05:29:52;;;;;;;16.83;10.77;;;17.60;99.90;;;;;;5032622;28;20442;-83
2021/09/16 05:32:18;;;;;;;18.38;10.63;;;18.30;99.90;;;;;;5036831;28;20075;-84
2021/09/16 05:34:43;;;;;;;17.77;10.73;;;17.50;99.90;;;;;;5038658;28;20061;-84
2021/09/16 05:37:09;;;;;;;16.17;10.18;;;17.60;99.90;;;;;;5031301;28;20080;-83
2021/09/16 05:39:35;;;;;;;19.10;11.18;;;18.10;99.90;;;;;;5023260;28;20419;-83
2021/09/16 05:42:01;;;;;;;14.68;9.85;;;17.60;99.90;;;;;;5040550;28;20067;-83
2021/09/16 05:44:26;;;;;;;17.23;11.35;;;17.50;99.90;;;;;;5033102;28;20029;-82
2021/09/16 05:46:52;;;;;;;14.90;9.57;;;17.60;99.90;;;;;;5039502;28;20043;-84
2021/09/16 05:49:17;;;;;;;13.55;8.85;;;17.70;99.90;;;;;;5025106;28;20025;-83
2021/09/16 05:51:43;;;;;;;17.83;10.60;;;17.80;99.90;;;;;;5046226;28;20518;-83
2021/09/16 05:54:08;;;;;;;15.00;8.98;;;17.60;99.90;;;;;;5031745;28;20092;-83
2021/09/16 05:56:34;;;;;;;15.13;9.63;;;17.70;99.90;;;;;;5052511;28;20029;-83
2021/09/16 05:59:00;;;;;;;15.77;9.45;;;17.80;99.90;;;;;;5033883;28;20033;-82
2021/09/16 06:01:25;;;;;;;13.63;9.43;;;17.70;99.90;;;;;;5037642;28;20506;-83
2021/09/16 06:03:51;;;;;;;16.33;9.85;;;17.70;99.90;;;;;;5036042;28;20108;-84
2021/09/16 06:06:16;;;;;;;15.63;9.25;;;17.90;99.90;;;;;;5029252;28;20022;-83
2021/09/16 06:08:43;;;;;;;16.02;10.85;;;17.70;99.90;;;;;;5057086;28;20033;-84
2021/09/16 06:11:09;;;;;;;12.95;8.93;;;17.60;99.90;;;;;;5030948;28;20058;-83
2021/09/16 06:13:34;;;;;;;14.20;9.13;;;17.60;99.90;;;;;;5031335;28;20092;-82
2021/09/16 06:16:03;;;;;;;17.13;9.68;;;17.60;99.90;;;;;;5034715;28;20755;-83
2021/09/16 06:18:29;;;;;;;13.65;8.27;;;17.50;99.90;;;;;;5031029;28;20088;-84
2021/09/16 06:20:54;;;;;;;15.15;10.18;;;18.20;99.90;;;;;;5036966;28;20033;-84
2021/09/16 06:23:20;;;;;;;13.48;8.05;;;17.50;99.90;;;;;;5038623;28;20026;-82
2021/09/16 06:25:46;;;;;;;16.20;10.73;;;17.80;99.90;;;;;;5040079;28;20537;-83
2021/09/16 06:28:11;;;;;;;14.52;9.27;;;17.60;99.90;;;;;;5040211;28;20084;-83
2021/09/16 06:30:37;;;;;;;13.73;8.32;;;17.90;99.90;;;;;;5032266;28;20523;-82
2021/09/16 06:33:02;;;;;;;12.45;8.23;;;18.30;99.90;;;;;;5037832;28;20430;-83
2021/09/16 06:35:28;;;;;;;12.38;8.10;;;17.50;99.90;;;;;;5043473;28;20026;-83
2021/09/16 06:37:54;;;;;;;13.00;7.88;;;17.50;99.90;;;;;;5036845;28;20033;-82
2021/09/16 06:40:19;;;;;;;12.63;8.10;;;17.50;99.90;;;;;;5036842;28;20021;-82
2021/09/16 06:42:45;;;;;;;12.73;7.95;;;17.50;99.90;;;;;;5053998;28;20034;-84
2021/09/16 06:45:11;;;;;;;12.93;7.40;;;17.50;99.90;;;;;;5035813;28;20404;-82
2021/09/16 06:47:37;;;;;;;10.20;7.10;;;17.50;99.90;;;;;;5030712;28;20874;-81
2021/09/16 06:50:03;;;;;;;10.70;6.90;;;17.50;99.90;;;;;;5033996;28;20409;-81
2021/09/16 06:52:29;;;;;;;11.82;7.40;;;17.50;99.90;;;;;;5036299;28;20065;-83
2021/09/16 06:54:57;;;;;;;16.42;6.60;;;17.50;99.90;;;;;;5036844;28;20056;-80
2021/09/16 06:57:23;;;;;;;11.40;6.45;;;17.50;99.90;;;;;;5035342;28;20017;-82
2021/09/16 06:59:49;;;;;;;11.13;6.40;;;17.70;99.90;;;;;;5036971;28;20418;-83
2021/09/16 07:02:14;;;;;;;13.25;7.10;;;18.10;99.90;;;;;;5037652;28;20025;-81
2021/09/16 07:04:40;;;;;;;8.32;5.93;;;17.50;99.90;;;;;;5040830;28;20108;-85
2021/09/16 07:07:06;;;;;;;8.35;5.78;;;18.30;99.90;;;;;;5056237;28;20026;-84
2021/09/16 07:09:36;;;;;;;8.77;5.97;;;17.60;99.90;;;;;;5042180;28;20021;-83
2021/09/16 07:12:02;;;;;;;8.23;5.68;;;17.60;99.90;;;;;;5046498;28;20022;-84
2021/09/16 07:14:30;;;;;;;8.63;5.45;;;17.60;99.90;;;;;;5037632;28;20029;-83
2021/09/16 07:16:56;;;;;;;8.82;5.47;;;18.20;99.90;;;;;;5040909;28;20426;-80
2021/09/16 07:19:22;;;;;;;12.80;6.22;;;17.70;99.90;;;;;;5040762;28;20056;-85
2021/09/16 07:21:47;;;;;;;9.80;5.53;;;17.60;99.90;;;;;;5041320;28;20021;-83
2021/09/16 07:24:14;;;;;;;7.85;5.30;;;17.60;99.90;;;;;;5041568;28;20028;-83
2021/09/16 07:26:41;;;;;;;10.35;5.53;;;17.70;99.90;;;;;;5028592;28;20025;-85
2021/09/16 07:29:07;;;;;;;9.32;5.53;;;19.40;99.90;;;;;;5039347;28;20029;-84
2021/09/16 07:31:33;;;;;;;7.53;5.25;;;17.80;99.90;;;;;;5043486;28;20128;-83
2021/09/16 07:33:58;;;;;;;8.32;4.75;;;17.80;99.90;;;;;;5035844;28;20033;-82
2021/09/16 07:36:25;;;;;;;7.45;5.10;;;17.90;99.90;;;;;;5040002;28;20068;-82
2021/09/16 07:38:50;;;;;;;7.07;5.00;;;19.50;99.90;;;;;;5038501;28;20256;-83
2021/09/16 07:41:16;;;;;;;6.65;5.10;;;18.00;99.90;;;;;;5036487;28;20598;-83
2021/09/16 07:43:42;;;;;;;9.95;5.55;;;18.80;99.90;;;;;;5056426;28;20057;-85
2021/09/16 07:46:08;;;;;;;10.85;5.20;;;18.10;99.90;;;;;;5038882;28;20037;-83
2021/09/16 07:48:33;;;;;;;9.23;5.53;;;18.00;99.90;;;;;;5051547;28;20037;-83
2021/09/16 07:50:59;;;;;;;7.28;4.65;;;18.90;99.90;;;;;;5039061;28;20472;-83
2021/09/16 07:53:27;;;;;;;7.28;4.68;;;18.90;99.90;;;;;;5057123;28;20029;-82
2021/09/16 07:55:53;;;;;;;7.35;4.60;;;18.20;99.90;;;;;;5039277;28;20040;-84
2021/09/16 07:58:19;;;;;;;7.35;4.50;;;18.30;99.90;;;;;;5038712;28;20039;-81
2021/09/16 08:00:46;;;;;;;6.10;4.60;;;18.30;99.90;;;;;;5038390;28;20506;-82
2021/09/16 08:03:11;;;;;;;6.85;5.05;;;18.40;99.90;;;;;;5036327;28;20049;-84
2021/09/16 08:05:37;;;;;;;8.05;4.72;;;18.30;99.90;;;;;;5028367;28;20042;-84
2021/09/16 08:08:03;;;;;;;7.47;4.32;;;18.30;99.90;;;;;;5019600;28;20068;-83
2021/09/16 08:10:28;;;;;;;6.65;4.65;;;18.40;99.90;;;;;;5032512;28;20098;-83
2021/09/16 08:12:54;;;;;;;7.40;4.65;;;18.40;99.90;;;;;;5034823;28;20037;-84
2021/09/16 08:15:20;;;;;;;7.43;4.13;;;18.50;99.90;;;;;;5033686;28;20037;-85
2021/09/16 08:17:46;;;;;;;5.75;4.20;;;18.60;99.90;;;;;;5028535;28;20116;-83
2021/09/16 08:20:13;;;;;;;7.90;4.43;;;18.60;99.90;;;;;;5034258;28;20059;-82
2021/09/16 08:22:38;;;;;;;7.45;4.13;;;18.60;99.90;;;;;;5034419;28;20037;-83
2021/09/16 08:25:06;;;;;;;8.57;4.00;;;18.80;99.90;;;;;;5034003;28;20052;-83
2021/09/16 08:27:33;;;;;;;7.93;3.58;;;18.80;99.90;;;;;;5034075;28;20083;-84
2021/09/16 08:29:59;;;;;;;7.50;4.07;;;18.90;99.90;;;;;;5034548;28;20029;-84
2021/09/16 08:32:25;;;;;;;7.30;3.85;;;18.90;99.90;;;;;;5034344;28;20032;-85
2021/09/16 08:34:51;;;;;;;6.80;3.80;;;19.00;99.90;;;;;;5036140;28;20033;-83
2021/09/16 08:37:16;;;;;;;5.47;3.63;;;19.20;99.90;;;;;;5035992;28;20113;-81
2021/09/16 08:39:42;;;;;;;7.47;4.28;;;19.20;99.90;;;;;;5034203;28;21125;-84
2021/09/16 08:42:08;;;;;;;6.68;3.45;;;19.40;99.90;;;;;;5045364;28;20028;-82
2021/09/16 08:44:35;;;;;;;5.10;3.35;;;19.70;99.90;;;;;;5035227;28;20049;-84
2021/09/16 08:47:01;;;;;;;5.75;3.00;;;19.90;99.90;;;;;;5037587;28;20033;-85
2021/09/16 08:49:27;;;;;;;5.25;3.17;;;20.00;99.90;;;;;;5035129;28;20544;-80
2021/09/16 08:51:53;;;;;;;6.80;3.22;;;20.20;99.90;;;;;;5037491;28;20064;-82
2021/09/16 08:54:19;;;;;;;6.55;3.17;;;20.10;99.80;;;;;;5036057;28;20112;-83
2021/09/16 08:56:46;;;;;;;8.40;5.57;;;20.20;99.90;;;;;;5033820;28;20025;-81
2021/09/16 08:59:11;;;;;;;5.28;3.13;;;20.10;99.90;;;;;;5035334;28;20033;-84
2021/09/16 09:01:37;;;;;;;6.13;2.65;;;20.20;99.90;;;;;;5037012;28;20032;-85
2021/09/16 09:04:04;;;;;;;6.50;2.60;;;20.00;99.60;;;;;;5035043;28;20564;-83
2021/09/16 09:06:36;;;;;;;4.57;2.67;;;20.10;99.70;;;;;;5037729;28;20048;-83
2021/09/16 09:09:20;;;;;;;4.97;2.72;;;20.10;99.90;;;;;;5036463;28;20368;-81
2021/09/16 09:12:11;;;;;;;4.43;2.95;;;20.10;99.30;;;;;;5037747;28;20120;-83
2021/09/16 09:14:51;;;;;;;4.22;2.78;;;20.00;99.30;;;;;;5036491;28;20029;-81
2021/09/16 09:17:19;;;;;;;6.68;2.90;;;20.20;98.90;;;;;;5025567;28;20029;-83
2021/09/16 09:19:46;;;;;;;4.53;2.63;;;20.30;98.80;;;;;;5037135;28;20030;-82
2021/09/16 09:22:11;;;;;;;5.07;3.17;;;20.10;98.30;;;;;;5036258;28;20071;-85
2021/09/16 09:24:44;;;;;;;6.97;3.30;;;20.10;98.50;;;;;;5037397;28;20463;-84
2021/09/16 09:27:27;;;;;;;4.85;2.45;;;20.10;98.50;;;;;;5035342;28;20068;-82
2021/09/16 09:30:10;;;;;;;4.30;2.72;;;20.10;97.80;;;;;;5035423;28;20034;-84
2021/09/16 09:32:55;;;;;;;6.93;2.50;;;20.30;97.80;;;;;;5033870;28;20029;-84
2021/09/16 09:35:26;;;;;;;8.48;4.88;;;20.20;97.10;;;;;;5033674;28;20482;-83
2021/09/16 09:37:52;;;;;;;5.28;2.58;;;20.20;97.00;;;;;;5032355;28;20045;-85
2021/09/16 09:40:29;;;;;;;5.50;2.80;;;20.30;97.30;;;;;;5037015;28;20091;-83
2021/09/16 09:42:56;;;;;;;5.53;2.65;;;20.30;96.70;;;;;;5036577;28;20187;-83
2021/09/16 09:45:22;;;;;;;6.00;2.70;;;20.40;96.90;;;;;;5036765;28;20025;-84
2021/09/16 09:47:48;;;;;;;4.05;2.67;;;20.30;95.60;;;;;;5036852;28;20024;-83
2021/09/16 09:50:26;;;;;;;6.15;2.35;;;20.60;95.80;;;;;;5036394;28;20062;-83
2021/09/16 09:52:53;;;;;;;6.45;2.70;;;20.90;95.40;;;;;;5048795;28;20029;-83
2021/09/16 09:55:23;;;;;;;2.97;1.90;;;21.00;95.10;;;;;;5035207;28;20029;-83
2021/09/16 09:58:02;;;;;;;5.40;2.30;;;21.10;94.40;;;;;;5037314;28;20031;-83
2021/09/16 10:00:27;;;;;;;5.38;2.15;;;21.20;94.60;;;;;;5032680;28;20596;-84
2021/09/16 10:02:53;;;;;;;4.78;2.30;;;20.50;94.90;;;;;;5038805;28;20017;-82
2021/09/16 10:05:27;;;;;;;3.83;2.10;;;21.00;95.80;;;;;;5034668;28;20026;-81
2021/09/16 10:07:55;;;;;;;6.18;2.70;;;20.20;96.30;;;;;;5035854;28;20032;-84
2021/09/16 10:10:21;;;;;;;4.95;2.70;;;20.30;97.00;;;;;;5034312;28;20017;-84
2021/09/16 10:12:49;;;;;;;6.35;2.55;;;20.20;97.00;;;;;;5035692;28;20080;-83
2021/09/16 10:15:17;;;;;;;5.75;2.63;;;19.90;97.40;;;;;;5032852;28;20021;-85
2021/09/16 10:17:44;;;;;;;4.28;2.30;;;19.90;97.20;;;;;;5037384;28;20028;-84
2021/09/16 10:20:13;;;;;;;6.03;2.90;;;20.60;97.30;;;;;;5034614;28;20036;-81
2021/09/16 10:22:41;;;;;;;4.05;2.63;;;19.90;97.20;;;;;;5052576;28;20033;-83
2021/09/16 10:25:08;;;;;;;5.03;2.30;;;20.40;97.20;;;;;;5036086;28;20033;-82
2021/09/16 10:27:39;;;;;;;3.85;2.45;;;20.00;97.20;;;;;;5036527;28;20052;-81
2021/09/16 10:30:23;;;;;;;5.20;2.80;;;20.30;97.60;;;;;;5032817;28;20053;-84
2021/09/16 10:33:16;;;;;;;3.40;2.45;;;20.00;97.70;;;;;;5034216;28;20055;-83
2021/09/16 10:36:06;;;;;;;4.97;2.67;;;20.20;97.10;;;;;;5007373;28;20033;-85
2021/09/16 10:38:43;;;;;;;2.78;2.28;;;20.20;97.50;;;;;;5037343;28;20030;-85
2021/09/16 10:41:32;;;;;;;4.15;2.50;;;20.30;97.00;;;;;;5029574;28;20029;-83
2021/09/16 10:43:57;;;;;;;7.65;2.95;;;20.40;96.40;;;;;;5047448;28;20021;-86
2021/09/16 10:46:35;;;;;;;6.53;2.42;;;20.50;96.40;;;;;;5036862;28;20036;-81
2021/09/16 10:49:20;;;;;;;4.25;2.25;;;20.70;96.20;;;;;;5035845;28;20136;-81
2021/09/16 10:51:47;;;;;;;4.78;2.63;;;20.60;95.80;;;;;;5035910;28;20205;-84
2021/09/16 10:54:29;;;;;;;4.13;2.15;;;20.50;95.80;;;;;;5037700;28;20509;-82
2021/09/16 10:57:13;;;;;;;4.70;2.33;;;20.50;96.50;;;;;;5035886;28;20040;-84
2021/09/16 10:59:54;;;;;;;4.40;2.28;;;20.60;95.90;;;;;;5025466;28;20037;-86
2021/09/16 11:02:24;;;;;;;4.05;2.30;;;20.70;95.30;;;;;;5035185;28;20075;-83
2021/09/16 11:04:59;;;;;;;6.03;2.65;;;20.70;95.40;;;;;;5033306;28;20092;-86
2021/09/16 11:07:34;;;;;;;4.18;2.72;;;20.50;95.90;;;;;;5031591;28;20061;-86
2021/09/16 11:12:41;;;;;;;4.70;2.10;;;20.50;95.40;;;;;;5036434;28;20478;-85
2021/09/16 11:15:10;;;;;;;2.40;2.00;;;20.40;95.30;;;;;;5029415;28;20055;-84
2021/09/16 11:17:36;;;;;;;8.30;2.38;;;20.20;95.60;;;;;;5036067;28;20032;-83
2021/09/16 11:20:03;;;;;;;5.55;2.38;;;20.30;96.00;;;;;;5056322;28;20164;-86
2021/09/16 11:22:29;;;;;;;2.45;1.90;;;20.30;96.10;;;;;;5038036;28;20664;-85
2021/09/16 11:24:57;;;;;;;6.85;2.53;;;20.50;95.90;;;;;;5036479;28;20034;-82
2021/09/16 11:27:29;;;;;;;6.97;2.20;;;21.40;96.00;;;;;;5033143;28;20018;-84
2021/09/16 11:29:55;;;;;;;4.75;2.28;;;20.40;95.40;;;;;;5033621;28;20034;-84
2021/09/16 11:32:20;;;;;;;6.22;2.25;;;20.30;95.20;;;;;;5034863;28;20049;-83
2021/09/16 11:34:55;;;;;;;4.40;2.28;;;20.10;95.30;;;;;;5034705;28;20026;-84
2021/09/16 11:37:27;;;;;;;4.57;1.92;;;20.10;95.60;;;;;;5034581;28;20052;-82
2021/09/16 11:40:03;;;;;;;2.92;1.70;;;20.00;95.50;;;;;;5029683;28;20495;-84
2021/09/16 11:42:31;;;;;;;3.53;2.03;;;20.00;95.60;;;;;;5032726;28;20026;-83
2021/09/16 11:45:17;;;;;;;2.50;1.88;;;20.00;95.70;;;;;;5035415;28;20025;-84
2021/09/16 11:47:50;;;;;;;4.30;2.03;;;20.10;95.00;;;;;;5033600;28;20100;-83
2021/09/16 11:50:41;;;;;;;3.33;1.92;;;20.10;95.10;;;;;;5035557;28;20034;-84
2021/09/16 11:53:18;;;;;;;3.60;2.10;;;20.20;95.00;;;;;;5021803;28;20041;-83
2021/09/16 11:55:52;;;;;;;5.72;2.30;;;20.30;95.20;;;;;;5029544;28;20451;-83
2021/09/16 11:58:23;;;;;;;6.03;2.40;;;20.50;94.70;;;;;;5037912;28;20041;-83
2021/09/16 12:00:55;;;;;;;4.93;2.40;;;20.60;93.80;;;;;;5039285;28;20040;-82
2021/09/16 12:03:30;;;;;;;2.63;1.60;;;20.70;93.50;;;;;;5038065;28;20364;-84
2021/09/16 12:06:04;;;;;;;5.45;2.33;;;20.70;92.70;;;;;;5038540;28;20045;-83
2021/09/16 12:08:33;;;;;;;3.08;1.92;;;20.70;92.70;;;;;;5038147;28;20120;-83
2021/09/16 12:11:07;;;;;;;3.13;1.77;;;20.80;92.60;;;;;;5038180;28;20029;-83
2021/09/16 12:13:40;;;;;;;2.97;1.90;;;20.90;92.70;;;;;;5036912;28;20026;-84
2021/09/16 12:16:27;;;;;;;4.20;2.13;;;21.10;92.80;;;;;;5037159;28;20168;-83
2021/09/16 12:18:59;;;;;;;7.28;2.65;;;21.30;92.20;;;;;;5034214;28;20033;-83
2021/09/16 12:21:30;;;;;;;4.15;2.15;;;21.40;92.60;;;;;;5038254;28;20021;-82
2021/09/16 12:23:57;;;;;;;3.00;2.10;;;21.40;92.20;;;;;;5039282;28;20056;-81
2021/09/16 12:26:25;;;;;;;3.65;2.28;;;21.20;91.90;;;;;;5037302;28;20014;-82
2021/09/16 12:28:52;;;;;;;4.25;2.38;;;21.00;92.20;;;;;;5037875;28;20062;-83
2021/09/16 12:31:24;;;;;;;3.80;2.50;;;21.10;92.80;;;;;;5034335;28;20068;-83
2021/09/16 12:33:56;;;;;;;4.10;2.10;;;21.30;92.70;;;;;;5037094;28;20029;-82
2021/09/16 12:36:23;;;;;;;3.88;2.10;;;21.10;92.50;;;;;;5038871;28;20029;-82
2021/09/16 12:39:01;;;;;;;4.22;2.17;;;21.20;92.30;;;;;;5046873;28;20021;-82
2021/09/16 12:41:30;;;;;;;3.33;2.03;;;21.30;92.00;;;;;;5037308;28;20041;-83
2021/09/16 12:44:02;;;;;;;3.10;2.10;;;21.30;91.90;;;;;;5036436;28;20457;-83
2021/09/16 12:46:37;;;;;;;3.50;2.15;;;21.30;91.40;;;;;;5037350;28;20276;-82
2021/09/16 12:49:03;;;;;;;3.10;1.92;;;21.10;91.70;;;;;;5036259;28;20025;-83
2021/09/16 12:51:28;;;;;;;3.30;2.15;;;21.20;91.90;;;;;;5036664;28;20033;-83
2021/09/16 12:53:54;;;;;;;4.80;2.05;;;21.10;92.10;;;;;;5036430;28;20044;-82